Time;durP1;ratioP1;P1;durP2;ratioP2;P2;SDS_P1;SDS_P2;PMS_P1;PMS_P2;Temp;Humidity;BMP_temperature;BMP_pressure;BME280_temperature;BME280_humidity;BME280_pressure;Samples;Min_cycle;Max_cycle;Signal;HPM_P1;HPM_P2
2021/09/28 00:00:13;;;;;;;3.20;1.40;;;13.10;99.90;;;14.00;100.00;98787.16;5109200;28;21076;-79
2021/09/28 00:02:41;;;;;;;2.80;1.20;;;13.00;99.90;;;13.91;100.00;98795.38;5110983;28;20451;-79
2021/09/28 00:05:11;;;;;;;8.23;1.50;;;12.90;99.90;;;13.91;100.00;98811.16;5098155;27;20534;-79
2021/09/28 00:07:40;;;;;;;7.00;1.43;;;12.90;99.90;;;13.87;100.00;98807.28;5100162;28;20478;-79
2021/09/28 00:10:09;;;;;;;7.37;1.80;;;13.00;99.90;;;13.87;100.00;98813.34;5108654;28;20492;-79
2021/09/28 00:12:38;;;;;;;2.53;1.07;;;12.90;99.90;;;13.72;100.00;98819.66;5103217;28;21179;-79
2021/09/28 00:15:10;;;;;;;5.20;1.33;;;12.80;99.90;;;13.64;100.00;98811.91;5104352;28;20515;-79
2021/09/28 00:17:39;;;;;;;11.43;1.80;;;12.60;99.90;;;13.70;100.00;98805.91;5096860;28;20457;-79
2021/09/28 00:20:12;;;;;;;4.43;1.47;;;12.70;99.90;;;13.61;100.00;98813.91;5099103;28;20466;-79
2021/09/28 00:22:42;;;;;;;6.17;1.27;;;12.60;99.90;;;13.63;100.00;98820.78;5094028;28;20854;-79
2021/09/28 00:25:11;;;;;;;5.23;2.33;;;12.60;99.90;;;13.59;100.00;98821.16;5102576;28;20979;-79
2021/09/28 00:27:40;;;;;;;3.90;1.27;;;12.60;99.90;;;13.43;100.00;98821.38;5106202;28;20551;-79
2021/09/28 00:30:10;;;;;;;3.47;1.10;;;12.50;99.90;;;13.40;100.00;98823.56;5103813;28;20468;-79
2021/09/28 00:32:38;;;;;;;2.37;1.20;;;12.40;99.90;;;13.34;100.00;98826.94;5101433;28;20496;-79
2021/09/28 00:35:08;;;;;;;5.10;1.50;;;12.30;99.90;;;13.36;100.00;98833.63;5104568;28;20998;-79
2021/09/28 00:37:38;;;;;;;4.40;1.50;;;12.30;99.90;;;13.46;100.00;98830.72;5102736;28;20496;-79
2021/09/28 00:40:08;;;;;;;5.00;1.70;;;12.40;99.90;;;13.41;100.00;98833.91;5107010;28;20476;-79
2021/09/28 00:42:37;;;;;;;7.87;1.60;;;12.40;99.90;;;13.31;100.00;98832.56;5101701;28;21044;-79
2021/09/28 00:45:08;;;;;;;12.23;1.60;;;12.30;99.90;;;13.37;100.00;98837.91;5101664;28;20462;-80
2021/09/28 00:47:37;;;;;;;14.33;1.93;;;12.50;99.90;;;13.38;100.00;98834.28;5100311;28;20462;-79
2021/09/28 00:50:07;;;;;;;3.83;1.40;;;12.50;99.90;;;13.40;100.00;98827.00;5101382;28;20494;-79
2021/09/28 00:52:35;;;;;;;15.00;2.00;;;12.50;99.90;;;13.42;100.00;98839.97;5104898;28;20942;-79
2021/09/28 00:55:06;;;;;;;4.63;1.57;;;12.60;99.90;;;13.39;100.00;98846.44;5108925;28;20518;-79
2021/09/28 00:57:36;;;;;;;3.73;1.30;;;12.50;99.90;;;13.37;100.00;98845.78;5105836;28;20971;-79
2021/09/28 01:00:07;;;;;;;2.73;1.37;;;12.40;99.90;;;13.40;100.00;98842.78;5104506;28;20504;-79
2021/09/28 01:02:37;;;;;;;11.27;1.80;;;12.40;99.90;;;13.38;100.00;98850.03;5110011;28;20993;-79
2021/09/28 01:05:08;;;;;;;5.03;1.60;;;12.50;99.90;;;13.37;100.00;98840.53;5099255;28;20454;-79
2021/09/28 01:07:37;;;;;;;3.10;1.50;;;12.40;99.90;;;13.28;100.00;98851.34;5101481;28;21002;-79
2021/09/28 01:10:09;;;;;;;7.03;1.67;;;12.30;99.90;;;13.22;100.00;98855.53;5103904;28;20792;-79
2021/09/28 01:12:38;;;;;;;13.83;1.20;;;12.20;99.90;;;13.29;100.00;98853.78;5106339;28;20523;-79
2021/09/28 01:15:08;;;;;;;6.43;1.67;;;12.30;99.90;;;13.35;100.00;98857.47;5107876;28;20502;-79
2021/09/28 01:17:37;;;;;;;5.77;1.40;;;12.40;99.90;;;13.33;100.00;98870.78;5109466;28;20507;-78
2021/09/28 01:20:06;;;;;;;4.00;1.60;;;12.30;99.90;;;13.29;100.00;98864.28;5109601;28;20847;-78
2021/09/28 01:22:36;;;;;;;2.70;1.40;;;12.40;99.90;;;13.16;100.00;98872.00;5101291;28;21001;-79
2021/09/28 01:25:06;;;;;;;8.73;1.83;;;12.10;99.90;;;13.17;100.00;98878.88;5109898;28;20447;-79
2021/09/28 01:27:37;;;;;;;5.70;1.60;;;12.30;99.90;;;13.17;100.00;98876.25;5109680;28;20454;-80
2021/09/28 01:30:09;;;;;;;2.40;1.63;;;12.20;99.90;;;13.19;100.00;98882.13;5109278;28;20988;-79
2021/09/28 01:32:40;;;;;;;4.60;1.40;;;12.20;99.90;;;13.21;100.00;98874.91;5109225;28;20814;-79
2021/09/28 01:35:09;;;;;;;7.83;1.57;;;12.20;99.90;;;13.21;100.00;98880.16;5100797;28;20490;-79
2021/09/28 01:37:39;;;;;;;1.60;1.30;;;12.20;99.90;;;13.20;100.00;98882.94;5105682;28;20482;-79
2021/09/28 01:40:09;;;;;;;5.20;1.50;;;12.20;99.90;;;13.19;100.00;98882.13;5096171;28;20568;-79
2021/09/28 01:42:37;;;;;;;2.07;1.17;;;12.20;99.90;;;13.20;100.00;98880.31;5108690;28;20446;-79
2021/09/28 01:45:07;;;;;;;5.50;1.43;;;12.20;99.90;;;13.07;100.00;98878.31;5106608;28;20483;-79
2021/09/28 01:47:35;;;;;;;12.50;1.73;;;12.10;99.90;;;12.95;100.00;98882.38;5114196;27;20539;-79
2021/09/28 01:50:06;;;;;;;4.57;1.40;;;11.90;99.90;;;12.83;100.00;98886.47;5109318;28;20491;-79
2021/09/28 01:52:35;;;;;;;5.40;1.50;;;11.80;99.90;;;12.82;100.00;98884.81;5109466;27;20872;-79
2021/09/28 01:55:07;;;;;;;3.87;1.43;;;11.80;99.90;;;12.83;100.00;98886.47;5107043;28;20502;-79
2021/09/28 01:57:37;;;;;;;2.80;1.33;;;11.80;99.90;;;12.83;100.00;98884.66;5105076;28;20476;-79
2021/09/28 02:00:07;;;;;;;3.00;1.57;;;11.90;99.90;;;12.82;100.00;98879.56;5110998;27;20462;-79
2021/09/28 02:02:35;;;;;;;4.90;1.20;;;11.80;99.90;;;12.83;100.00;98883.84;5108984;28;20841;-79
2021/09/28 02:05:04;;;;;;;2.13;1.17;;;11.90;99.90;;;12.84;100.00;98874.97;5105230;28;20483;-79
2021/09/28 02:07:33;;;;;;;15.57;1.87;;;11.80;99.90;;;12.78;100.00;98879.13;5108974;28;20511;-78
2021/09/28 02:10:01;;;;;;;10.83;1.57;;;11.90;99.90;;;12.56;100.00;98875.56;5101394;28;20486;-79
2021/09/28 02:12:31;;;;;;;9.57;1.40;;;11.60;99.90;;;12.58;100.00;98878.03;5106977;28;20954;-79
2021/09/28 02:14:59;;;;;;;6.10;1.60;;;11.60;99.90;;;12.61;100.00;98873.22;5108653;28;20885;-79
2021/09/28 02:17:28;;;;;;;8.87;1.60;;;11.60;99.90;;;12.58;100.00;98878.03;5099836;28;20454;-79
2021/09/28 02:19:56;;;;;;;3.90;1.47;;;11.60;99.90;;;12.64;100.00;98879.94;5108754;28;20959;-79
2021/09/28 02:22:25;;;;;;;7.23;1.70;;;11.60;99.90;;;12.63;100.00;98880.94;5100708;28;21026;-79
2021/09/28 02:24:54;;;;;;;4.73;1.70;;;11.60;99.90;;;12.58;100.00;98873.59;5106432;28;20451;-79
2021/09/28 02:27:22;;;;;;;6.90;1.40;;;11.60;99.90;;;12.55;100.00;98879.19;5093741;28;20487;-79
2021/09/28 02:29:52;;;;;;;11.23;1.83;;;11.50;99.90;;;12.41;100.00;98885.25;5103541;28;20486;-79
2021/09/28 02:32:20;;;;;;;4.33;1.60;;;11.40;99.90;;;12.38;100.00;98888.22;5106471;28;20889;-79
2021/09/28 02:34:49;;;;;;;3.00;1.20;;;11.30;99.90;;;12.45;100.00;98891.75;5099224;28;20517;-79
2021/09/28 02:37:18;;;;;;;8.17;1.47;;;11.50;99.90;;;12.47;100.00;98881.91;5105421;28;20901;-79
2021/09/28 02:39:46;;;;;;;4.17;1.67;;;11.40;99.90;;;12.50;100.00;98896.44;5098995;28;20475;-79
2021/09/28 02:42:15;;;;;;;4.90;1.37;;;11.50;99.90;;;12.48;100.00;98909.75;5100583;28;20451;-79
2021/09/28 02:44:44;;;;;;;12.10;1.80;;;11.50;99.90;;;12.43;100.00;98893.72;5106789;28;20450;-79
2021/09/28 02:47:13;;;;;;;5.10;1.20;;;11.40;99.90;;;12.45;100.00;98891.75;5102689;28;20489;-78
2021/09/28 02:49:42;;;;;;;2.07;1.30;;;11.40;99.90;;;12.27;100.00;98893.06;5092923;28;20444;-79
2021/09/28 02:52:11;;;;;;;2.20;1.20;;;11.20;99.90;;;12.15;100.00;98897.09;5104920;28;20447;-79
2021/09/28 02:54:40;;;;;;;7.03;1.10;;;11.00;99.90;;;12.20;100.00;98900.81;5106168;28;20485;-80
2021/09/28 02:57:09;;;;;;;4.70;1.50;;;11.10;99.90;;;12.22;100.00;98908.53;5104996;28;20482;-80
2021/09/28 02:59:38;;;;;;;3.00;1.20;;;11.20;99.90;;;12.15;100.00;98918.09;5104535;28;20488;-81
2021/09/28 03:02:07;;;;;;;4.03;1.73;;;11.10;99.90;;;12.16;100.00;98909.22;5107520;28;20455;-79
2021/09/28 03:04:37;;;;;;;5.10;1.53;;;11.10;99.90;;;12.16;100.00;98910.03;5104397;28;20497;-80
2021/09/28 03:07:06;;;;;;;9.43;1.40;;;11.10;99.90;;;12.16;100.00;98907.41;5102817;28;20462;-80
2021/09/28 03:09:35;;;;;;;5.43;1.50;;;11.10;99.90;;;12.19;100.00;98911.47;5108332;28;20448;-80
2021/09/28 03:12:05;;;;;;;3.17;1.37;;;11.20;99.90;;;12.13;100.00;98906.94;5107929;28;20813;-80
2021/09/28 03:14:33;;;;;;;4.13;1.70;;;11.10;99.90;;;12.09;100.00;98909.09;5102789;28;20497;-80
2021/09/28 03:17:02;;;;;;;1.73;1.20;;;11.00;99.90;;;12.08;100.00;98904.84;5100822;28;20520;-79
2021/09/28 03:19:31;;;;;;;3.23;1.40;;;11.00;99.90;;;12.10;100.00;98901.06;5108023;28;20451;-80
2021/09/28 03:22:01;;;;;;;5.63;1.60;;;11.10;99.90;;;12.14;100.00;98906.78;5100812;28;20453;-79
2021/09/28 03:24:30;;;;;;;6.07;1.60;;;11.10;99.90;;;12.10;100.00;98910.72;5099600;28;20477;-80
2021/09/28 03:26:58;;;;;;;6.20;1.57;;;11.10;99.90;;;12.05;100.00;98910.44;5109848;28;21024;-80
2021/09/28 03:29:28;;;;;;;3.53;1.63;;;11.10;99.90;;;11.98;100.00;98910.31;5111889;28;20664;-79
2021/09/28 03:31:56;;;;;;;9.57;1.60;;;11.10;99.90;;;11.95;100.00;98904.59;5111148;28;20466;-80
2021/09/28 03:34:25;;;;;;;4.10;1.30;;;11.10;99.90;;;11.91;100.00;98914.63;5108841;28;20478;-80
2021/09/28 03:36:53;;;;;;;7.47;1.67;;;11.00;99.90;;;11.87;100.00;98917.78;5104412;28;21009;-80
2021/09/28 03:39:23;;;;;;;4.03;1.40;;;10.90;99.90;;;11.79;100.00;98913.41;5100609;28;20454;-80
2021/09/28 03:41:52;;;;;;;4.50;1.30;;;10.80;99.90;;;11.83;100.00;98914.69;5102448;28;20837;-78
2021/09/28 03:44:20;;;;;;;4.17;1.57;;;10.80;99.90;;;11.80;100.00;98912.41;5104194;28;20882;-79
2021/09/28 03:46:49;;;;;;;4.47;1.57;;;10.80;99.90;;;11.73;100.00;98908.03;5103835;28;20474;-79
2021/09/28 03:49:17;;;;;;;4.43;1.33;;;10.80;99.90;;;11.71;100.00;98917.88;5108907;28;20499;-79
2021/09/28 03:51:46;;;;;;;11.27;1.90;;;10.80;99.90;;;11.65;100.00;98916.72;5101019;28;20462;-80
2021/09/28 03:54:14;;;;;;;4.03;1.63;;;10.80;99.90;;;11.59;100.00;98922.66;5105601;28;20464;-79
2021/09/28 03:56:44;;;;;;;4.80;1.50;;;10.60;99.90;;;11.59;100.00;98925.28;5103520;28;20486;-80
2021/09/28 03:59:12;;;;;;;9.10;2.20;;;10.60;99.90;;;11.59;100.00;98928.69;5106910;28;20458;-80
2021/09/28 04:01:41;;;;;;;10.20;1.80;;;10.60;99.90;;;11.64;100.00;98933.41;5102896;28;20454;-80
2021/09/28 04:04:10;;;;;;;15.20;1.90;;;10.70;99.90;;;11.71;100.00;98941.44;5111380;28;20473;-80
2021/09/28 04:06:39;;;;;;;8.43;1.70;;;10.70;99.90;;;11.68;100.00;98934.72;5106166;28;20465;-80
2021/09/28 04:09:07;;;;;;;2.23;1.80;;;10.70;99.90;;;11.74;100.00;98935.84;5106455;28;20450;-79
2021/09/28 04:11:36;;;;;;;9.40;3.90;;;10.80;99.90;;;11.78;100.00;98942.38;5104486;28;21064;-82
2021/09/28 04:14:07;;;;;;;7.80;2.20;;;10.80;99.90;;;11.82;100.00;98938.44;5101006;28;20549;-80
2021/09/28 04:16:36;;;;;;;10.33;2.83;;;10.90;99.90;;;11.81;100.00;98944.66;5099219;28;20501;-80
2021/09/28 04:19:05;;;;;;;5.17;2.30;;;10.90;99.90;;;11.84;100.00;98946.94;5108064;28;20459;-80
2021/09/28 04:21:34;;;;;;;4.93;3.00;;;11.00;99.90;;;11.86;100.00;98950.22;5105353;28;20516;-80
2021/09/28 04:24:03;;;;;;;5.13;3.00;;;11.00;99.90;;;11.89;100.00;98948.06;5106374;28;20446;-79
2021/09/28 04:26:31;;;;;;;5.40;2.57;;;11.00;99.90;;;11.92;100.00;98954.75;5110823;28;20446;-79
2021/09/28 04:29:00;;;;;;;7.20;3.23;;;11.10;99.90;;;11.96;100.00;98956.88;5104216;28;20443;-79
2021/09/28 04:31:30;;;;;;;7.07;3.70;;;11.10;99.90;;;12.01;100.00;98966.81;5107317;28;20503;-79
2021/09/28 04:33:58;;;;;;;5.20;2.93;;;11.10;99.90;;;12.05;100.00;98970.72;5105188;28;20488;-79
2021/09/28 04:36:28;;;;;;;3.60;3.00;;;11.10;99.90;;;12.09;100.00;98966.78;5097093;28;20516;-79
2021/09/28 04:38:57;;;;;;;6.70;3.77;;;11.20;99.90;;;12.11;100.00;98962.19;5110950;28;20496;-79
2021/09/28 04:41:25;;;;;;;23.43;13.27;;;11.20;99.90;;;12.08;100.00;98967.75;5111783;28;20500;-80
2021/09/28 04:46:43;;;;;;;5.77;3.60;;;11.20;99.90;;;12.13;100.00;98962.81;5109500;28;20480;-80
2021/09/28 04:49:12;;;;;;;5.80;3.20;;;11.20;99.90;;;12.16;100.00;98962.47;5110680;28;20451;-79
2021/09/28 04:51:40;;;;;;;3.40;3.03;;;11.20;99.90;;;12.16;100.00;98959.03;5104426;28;20454;-81
2021/09/28 04:54:09;;;;;;;14.00;3.57;;;11.30;99.90;;;12.12;100.00;98955.94;5109104;28;20527;-79
2021/09/28 04:56:37;;;;;;;6.30;3.90;;;11.30;99.90;;;12.14;100.00;98959.22;5105150;28;20521;-80
2021/09/28 04:59:06;;;;;;;6.30;3.30;;;11.40;99.90;;;12.10;100.00;98952.69;5101539;28;20490;-80
2021/09/28 05:01:35;;;;;;;6.57;3.47;;;11.40;99.90;;;12.09;100.00;98956.28;5112128;28;20497;-80
2021/09/28 05:04:06;;;;;;;9.23;4.00;;;11.30;99.90;;;12.09;100.00;98951.88;5106978;28;20443;-80
2021/09/28 05:06:34;;;;;;;5.20;4.00;;;11.20;99.90;;;12.13;100.00;98954.13;5112143;28;20583;-80
2021/09/28 05:09:03;;;;;;;5.83;3.83;;;11.30;99.90;;;12.07;100.00;98947.78;5102633;28;20841;-80
2021/09/28 05:11:32;;;;;;;8.10;4.20;;;11.30;99.90;;;12.07;100.00;98950.41;5111987;28;20477;-79
2021/09/28 05:14:01;;;;;;;10.10;3.40;;;11.30;99.90;;;12.06;100.00;98954.84;5102411;28;20454;-79
2021/09/28 05:16:29;;;;;;;5.13;3.30;;;11.40;99.90;;;11.97;100.00;98948.03;5111708;28;20538;-79
2021/09/28 05:18:58;;;;;;;5.47;2.90;;;11.40;99.90;;;11.88;100.00;98958.72;5110191;28;20446;-80
2021/09/28 05:21:28;;;;;;;6.40;3.23;;;11.30;99.90;;;11.78;100.00;98952.88;5109462;28;20513;-80
2021/09/28 05:23:56;;;;;;;5.53;2.40;;;11.30;99.90;;;11.77;100.00;98966.94;5111511;28;20508;-80
2021/09/28 05:26:25;;;;;;;3.43;2.57;;;11.30;99.90;;;11.65;100.00;98958.66;5111797;28;20507;-80
2021/09/28 05:28:54;;;;;;;8.70;2.80;;;11.30;99.90;;;11.58;100.00;98958.50;5111613;28;20857;-79
2021/09/28 05:31:22;;;;;;;4.63;2.93;;;11.20;99.90;;;11.50;100.00;98962.97;5111470;28;20505;-79
2021/09/28 05:33:51;;;;;;;8.13;3.07;;;11.10;99.90;;;11.43;100.00;98968.06;5110959;28;20442;-80
2021/09/28 05:36:20;;;;;;;7.30;3.13;;;10.90;99.90;;;11.37;100.00;98955.66;5107194;28;20900;-79
2021/09/28 05:38:50;;;;;;;3.83;2.60;;;10.90;99.90;;;11.36;100.00;98961.88;5111232;28;20435;-79
2021/09/28 05:41:18;;;;;;;3.53;2.57;;;10.90;99.90;;;11.33;100.00;98958.78;5108503;28;20931;-79
2021/09/28 05:43:47;;;;;;;7.30;3.27;;;10.90;99.90;;;11.37;100.00;98963.50;5110352;28;21079;-80
2021/09/28 05:46:15;;;;;;;5.43;2.83;;;10.90;99.90;;;11.43;100.00;98959.38;5110311;28;20943;-79
2021/09/28 05:48:44;;;;;;;6.50;3.13;;;10.80;99.90;;;11.50;100.00;98958.53;5110155;28;20442;-80
2021/09/28 05:51:17;;;;;;;3.37;2.70;;;10.90;99.90;;;11.50;100.00;98962.97;5105348;28;20447;-79
2021/09/28 05:53:46;;;;;;;6.00;2.70;;;10.70;99.90;;;11.50;100.00;98958.53;5107391;28;20458;-79
2021/09/28 05:56:17;;;;;;;4.10;2.43;;;10.60;99.90;;;11.50;100.00;98963.78;5110685;28;20493;-79
2021/09/28 05:58:45;;;;;;;3.90;3.13;;;10.60;99.90;;;11.50;100.00;98960.34;5109970;28;20482;-79
2021/09/28 06:01:14;;;;;;;6.53;2.80;;;10.50;99.90;;;11.52;100.00;98966.25;5110374;28;20468;-79
2021/09/28 06:03:43;;;;;;;4.63;2.60;;;10.50;99.90;;;11.52;100.00;98968.84;5105588;28;20905;-79
2021/09/28 06:06:11;;;;;;;8.87;3.10;;;10.50;99.90;;;11.49;100.00;98959.50;5107088;28;20442;-79
2021/09/28 06:08:40;;;;;;;5.73;2.90;;;10.60;99.90;;;11.53;100.00;98966.06;5110081;28;20450;-79
2021/09/28 06:11:08;;;;;;;3.87;3.00;;;10.50;99.90;;;11.57;100.00;98964.72;5108706;28;20482;-79
2021/09/28 06:13:38;;;;;;;4.43;2.63;;;10.60;99.90;;;11.55;100.00;98963.28;5109359;28;20938;-79
2021/09/28 06:16:07;;;;;;;6.83;3.47;;;10.60;99.90;;;11.60;100.00;98969.63;5110094;28;20455;-79
2021/09/28 06:18:35;;;;;;;4.10;3.23;;;10.60;99.90;;;11.67;100.00;98966.31;5109871;28;20442;-79
2021/09/28 06:21:04;;;;;;;6.43;4.00;;;10.70;99.90;;;11.73;100.00;98970.94;5109058;28;20443;-79
2021/09/28 06:23:32;;;;;;;3.97;3.20;;;10.80;99.90;;;11.69;100.00;98964.34;5103986;28;20547;-80
2021/09/28 06:26:02;;;;;;;5.93;2.80;;;10.80;99.90;;;11.69;100.00;98967.81;5110065;28;20438;-79
2021/09/28 06:28:32;;;;;;;6.63;3.40;;;10.70;99.90;;;11.68;100.00;98963.53;5109363;28;20534;-80
2021/09/28 06:31:01;;;;;;;4.73;2.90;;;10.70;99.90;;;11.74;100.00;98967.28;5109583;28;20790;-79
2021/09/28 06:33:30;;;;;;;5.23;3.30;;;10.70;99.90;;;11.76;100.00;98966.16;5097779;28;20491;-79
2021/09/28 06:35:58;;;;;;;4.50;3.30;;;10.80;99.90;;;11.80;100.00;98962.19;5104275;28;20450;-80
2021/09/28 06:38:27;;;;;;;6.07;3.67;;;10.80;99.90;;;11.79;100.00;98957.94;5109778;28;20907;-80
2021/09/28 06:40:56;;;;;;;10.63;3.67;;;10.80;99.90;;;11.84;100.00;98962.66;5109189;28;20931;-79
2021/09/28 06:43:24;;;;;;;7.10;3.17;;;10.90;99.90;;;11.89;100.00;98957.72;5109859;28;20447;-79
2021/09/28 06:45:53;;;;;;;8.50;3.50;;;11.00;99.90;;;11.92;100.00;98960.81;5107036;28;20438;-80
2021/09/28 06:48:23;;;;;;;7.40;3.63;;;11.00;99.90;;;11.93;100.00;98962.47;5109602;28;20442;-80
2021/09/28 06:50:52;;;;;;;8.63;3.57;;;11.00;99.90;;;11.95;100.00;98951.78;5109605;28;20931;-80
2021/09/28 06:53:20;;;;;;;5.40;3.30;;;11.00;99.90;;;12.00;100.00;98954.72;5105575;28;20451;-79
2021/09/28 06:55:49;;;;;;;10.30;3.90;;;11.00;99.90;;;11.97;100.00;98953.25;5109521;28;20457;-80
2021/09/28 06:58:17;;;;;;;9.60;3.77;;;11.00;99.90;;;11.95;100.00;98954.41;5109178;28;20506;-80
2021/09/28 07:00:46;;;;;;;10.60;4.07;;;11.00;99.90;;;12.02;100.00;98960.59;5111229;28;20888;-80
2021/09/28 07:03:14;;;;;;;9.80;3.67;;;11.00;99.90;;;12.07;100.00;98963.53;5109815;28;20459;-80
2021/09/28 07:05:45;;;;;;;6.63;3.17;;;11.10;99.90;;;12.11;100.00;98955.13;5111596;28;20534;-79
2021/09/28 07:08:13;;;;;;;7.00;3.90;;;11.20;99.90;;;12.18;100.00;98960.50;5113461;28;20475;-79
2021/09/28 07:10:42;;;;;;;6.87;3.87;;;11.20;99.90;;;12.21;100.00;98961.94;5108691;28;20438;-80
2021/09/28 07:13:11;;;;;;;6.03;3.70;;;11.30;99.90;;;12.24;100.00;98959.78;5109730;28;20451;-80
2021/09/28 07:15:39;;;;;;;8.40;4.57;;;11.30;99.90;;;12.29;100.00;98957.44;5113673;28;20526;-80
2021/09/28 07:18:11;;;;;;;10.60;3.70;;;11.40;99.90;;;12.35;100.00;98956.78;5109957;28;20501;-79
2021/09/28 07:20:40;;;;;;;6.50;3.80;;;11.40;99.90;;;12.40;100.00;98954.41;5113889;28;20474;-80
2021/09/28 07:23:10;;;;;;;4.93;3.03;;;11.40;99.90;;;12.44;100.00;98949.63;5106459;28;20458;-79
2021/09/28 07:25:39;;;;;;;9.10;4.10;;;11.50;99.90;;;12.49;100.00;98958.63;5107171;28;20442;-80
2021/09/28 07:28:08;;;;;;;7.80;3.70;;;11.60;99.90;;;12.51;100.00;98951.38;5113790;28;20857;-80
2021/09/28 07:30:37;;;;;;;6.63;3.47;;;11.60;99.90;;;12.58;100.00;98951.50;5113509;28;20499;-80
2021/09/28 07:33:05;;;;;;;5.67;3.03;;;11.70;99.90;;;12.61;100.00;98951.94;5115033;27;20446;-80
2021/09/28 07:35:34;;;;;;;8.50;3.47;;;11.80;99.90;;;12.55;100.00;98952.66;5109411;28;20927;-79
2021/09/28 07:38:02;;;;;;;9.90;3.47;;;11.70;99.90;;;12.51;100.00;98948.75;5112523;28;21051;-79
2021/09/28 07:40:32;;;;;;;8.83;4.33;;;11.70;99.90;;;12.43;100.00;98938.31;5112874;28;20991;-79
2021/09/28 07:43:01;;;;;;;5.10;2.90;;;11.50;99.90;;;12.49;100.00;98942.88;5112983;28;20447;-80
2021/09/28 07:45:29;;;;;;;4.13;3.00;;;11.60;99.90;;;12.61;100.00;98941.44;5114284;27;20489;-80
2021/09/28 07:47:58;;;;;;;9.40;3.33;;;11.80;99.90;;;12.71;100.00;98935.13;5111981;28;20991;-80
2021/09/28 07:50:26;;;;;;;12.80;2.93;;;11.90;99.90;;;12.80;100.00;98929.66;5113051;28;20447;-80
2021/09/28 07:52:56;;;;;;;7.23;3.23;;;11.90;99.90;;;12.90;100.00;98929.38;5109410;28;20947;-80
2021/09/28 07:55:26;;;;;;;7.73;3.10;;;12.00;99.90;;;12.96;100.00;98926.03;5112824;28;20446;-80
2021/09/28 07:57:56;;;;;;;10.57;2.93;;;12.10;99.90;;;13.01;100.00;98934.19;5112336;28;20498;-80
2021/09/28 08:00:25;;;;;;;7.43;3.50;;;12.20;99.90;;;13.06;100.00;98923.94;5109979;28;20496;-80
2021/09/28 08:02:53;;;;;;;6.27;2.80;;;12.30;99.90;;;13.14;100.00;98921.28;5112339;28;20473;-80
2021/09/28 08:05:22;;;;;;;8.33;2.90;;;12.40;99.90;;;13.19;100.00;98912.84;5109850;28;20444;-80
2021/09/28 08:07:51;;;;;;;9.60;3.53;;;12.40;99.90;;;13.26;100.00;98922.44;5110909;28;20752;-80
2021/09/28 08:10:19;;;;;;;9.37;3.33;;;12.50;99.90;;;13.32;100.00;98924.34;5109179;27;20855;-80
2021/09/28 08:12:48;;;;;;;7.30;2.53;;;12.60;99.90;;;13.37;100.00;98924.59;5111426;28;20863;-80
2021/09/28 08:15:18;;;;;;;10.30;2.73;;;12.60;99.90;;;13.40;100.00;98916.34;5110559;28;20875;-80
2021/09/28 08:17:46;;;;;;;8.03;3.00;;;12.70;99.90;;;13.47;100.00;98917.25;5099979;28;20478;-80
2021/09/28 08:20:17;;;;;;;9.50;2.63;;;12.70;99.90;;;13.55;100.00;98908.44;5112001;28;20438;-80
2021/09/28 08:22:46;;;;;;;8.47;2.63;;;12.80;99.90;;;13.60;100.00;98906.91;5105655;28;20447;-80
2021/09/28 08:25:16;;;;;;;8.07;3.23;;;12.80;99.90;;;13.63;100.00;98910.16;5112190;28;20504;-80
2021/09/28 08:30:33;;;;;;;8.40;2.70;;;13.00;99.90;;;13.76;100.00;98910.28;5112338;28;20443;-80
2021/09/28 08:33:01;;;;;;;13.10;4.47;;;13.00;99.90;;;13.81;100.00;98919.28;5110305;28;20466;-80
2021/09/28 08:35:30;;;;;;;14.10;6.10;;;13.00;99.90;;;13.86;100.00;98923.94;5112245;28;20438;-80
2021/09/28 08:37:59;;;;;;;7.97;3.00;;;13.10;99.90;;;13.92;100.00;98917.94;5110545;28;20490;-80
2021/09/28 08:40:27;;;;;;;7.30;3.03;;;13.20;99.90;;;13.97;100.00;98908.50;5111924;28;20446;-80
2021/09/28 08:42:56;;;;;;;8.07;3.53;;;13.30;99.90;;;14.01;100.00;98909.75;5112476;27;20875;-80
2021/09/28 08:45:24;;;;;;;13.23;3.30;;;13.30;99.90;;;14.08;100.00;98909.81;5108009;28;20446;-80
2021/09/28 08:47:54;;;;;;;3.47;2.33;;;13.40;99.90;;;14.09;100.00;98907.00;5111414;28;20443;-80
2021/09/28 08:50:24;;;;;;;9.17;2.67;;;13.50;99.90;;;14.14;100.00;98903.81;5111777;28;20856;-80
2021/09/28 08:52:53;;;;;;;8.43;2.50;;;13.60;99.90;;;14.21;100.00;98909.13;5111788;28;20442;-80
2021/09/28 08:55:24;;;;;;;7.40;2.70;;;13.70;99.90;;;14.24;100.00;98906.94;5111562;28;20444;-80
2021/09/28 08:58:12;;;;;;;5.30;2.20;;;13.70;99.90;;;14.32;100.00;98906.00;5108812;28;20490;-80
2021/09/28 09:00:41;;;;;;;13.63;2.70;;;13.80;99.90;;;14.34;100.00;98904.81;5111784;27;20535;-81
2021/09/28 09:03:26;;;;;;;16.90;2.23;;;13.80;99.90;;;14.42;100.00;98901.25;5111255;28;20459;-81
2021/09/28 09:05:57;;;;;;;3.80;2.37;;;13.90;99.90;;;14.43;100.00;98893.19;5103233;28;20435;-80
2021/09/28 09:08:27;;;;;;;5.03;1.63;;;14.00;99.90;;;14.49;100.00;98902.94;5111318;28;20534;-80
2021/09/28 09:11:06;;;;;;;4.90;2.00;;;13.90;99.90;;;14.58;100.00;98901.78;5110964;28;20454;-81
2021/09/28 09:13:40;;;;;;;4.50;1.97;;;14.00;99.90;;;14.65;100.00;98903.66;5108261;28;20451;-80
2021/09/28 09:16:13;;;;;;;3.20;1.87;;;14.10;99.90;;;14.70;100.00;98904.72;5111741;28;20503;-80
2021/09/28 09:18:46;;;;;;;4.03;2.03;;;14.20;99.90;;;14.69;100.00;98902.25;5102929;28;20479;-80
2021/09/28 09:21:16;;;;;;;2.70;1.70;;;14.30;99.90;;;14.77;100.00;98900.31;5109600;28;20442;-80
2021/09/28 09:23:51;;;;;;;8.77;2.53;;;14.30;99.90;;;14.82;100.00;98897.88;5097440;27;20455;-80
2021/09/28 09:26:22;;;;;;;15.17;2.37;;;14.30;99.90;;;14.85;100.00;98894.91;5110107;28;20475;-81
2021/09/28 09:28:53;;;;;;;10.50;1.97;;;14.40;99.90;;;14.89;100.00;98892.69;5108481;28;20443;-81
2021/09/28 09:31:31;;;;;;;7.20;2.10;;;14.40;99.90;;;14.95;100.00;98886.63;5106464;28;20509;-80
2021/09/28 09:34:13;;;;;;;4.60;2.23;;;14.40;99.90;;;15.02;100.00;98872.50;5104848;28;20443;-80
2021/09/28 09:36:43;;;;;;;8.90;2.33;;;14.40;99.90;;;15.09;100.00;98880.44;5110477;28;20811;-80
2021/09/28 09:39:12;;;;;;;7.03;3.20;;;14.50;99.90;;;15.15;100.00;98882.28;5110409;28;20520;-80
2021/09/28 09:41:43;;;;;;;4.77;2.00;;;14.50;99.90;;;15.18;100.00;98887.16;5110917;28;20865;-80
2021/09/28 09:44:15;;;;;;;4.77;1.97;;;14.70;99.90;;;15.21;100.00;98878.03;5112837;27;20946;-80
2021/09/28 09:46:47;;;;;;;4.50;2.50;;;14.60;99.90;;;15.19;100.00;98880.06;5108101;28;20930;-81
2021/09/28 09:49:24;;;;;;;10.80;2.80;;;14.50;99.90;;;15.24;100.00;98878.47;5110787;28;20435;-80
2021/09/28 09:51:55;;;;;;;8.07;2.10;;;14.50;99.90;;;15.31;100.00;98881.94;5104712;28;20806;-80
2021/09/28 09:54:33;;;;;;;8.20;2.70;;;14.60;99.90;;;15.37;100.00;98886.44;5110566;28;21004;-80
2021/09/28 09:57:05;;;;;;;7.93;2.23;;;14.70;99.90;;;15.41;100.00;98877.13;5109907;28;20539;-80
2021/09/28 09:59:35;;;;;;;7.80;2.33;;;14.70;99.90;;;15.46;100.00;98876.53;5110377;28;20494;-80
2021/09/28 10:02:07;;;;;;;7.03;2.07;;;14.80;99.90;;;15.48;100.00;98877.16;5108690;28;20553;-80
2021/09/28 10:04:38;;;;;;;9.50;2.13;;;14.80;99.90;;;15.54;100.00;98879.84;5108832;28;20458;-80
2021/09/28 10:07:07;;;;;;;7.27;2.10;;;14.90;99.90;;;15.58;100.00;98875.78;5101034;28;20530;-80
2021/09/28 10:09:39;;;;;;;11.03;2.57;;;14.90;99.90;;;15.60;100.00;98873.78;5106991;28;20455;-80
2021/09/28 10:12:10;;;;;;;2.80;1.67;;;14.90;99.90;;;15.65;100.00;98864.47;5109936;28;20478;-80
2021/09/28 10:14:42;;;;;;;5.63;1.87;;;15.00;99.90;;;15.64;100.00;98873.38;5109859;28;20477;-80
2021/09/28 10:17:45;;;;;;;13.70;1.70;;;15.00;99.90;;;15.65;100.00;98864.47;5109162;28;20446;-80
2021/09/28 10:20:30;;;;;;;6.00;1.90;;;14.90;99.90;;;15.66;100.00;98868.69;5059810;28;20968;-80
2021/09/28 10:23:13;;;;;;;2.90;1.70;;;14.90;99.90;;;15.71;100.00;98866.28;5056709;28;20488;-80
2021/09/28 10:25:45;;;;;;;7.43;1.57;;;15.00;99.90;;;15.73;100.00;98866.91;5089362;28;20451;-80
2021/09/28 10:28:41;;;;;;;8.50;1.60;;;15.00;99.90;;;15.75;100.00;98862.25;5108193;28;20466;-81